Terminal Aerodrome Forecast
Issued by NWS

Home | Current Version | Previous Version | Text Only | Print | Product List | Glossary Off
Versions: 1 2 3 4 5 6 7 8 9 10 11 12 13 14 15 16 17 18

000
FTUS43 KTOP 202300
TAFFOE
TAF
KFOE 202339Z 2100/2124 20010KT P6SM SCT070 BKN120
     FM210600 21007KT P6SM -SHRA BKN050
     FM211100 24004KT 4SM -SHRA BR BKN030
     FM211500 31009KT P6SM VCSH BKN035
     FM212100 33014KT P6SM SCT040=

USA.gov is the U.S. government's official web portal to all federal, state and local government web resources and services.